This demonstration page uses our WeatherBlox Daily Observations layout. Learn more.

39.29038, -76.61219

Hourly Observations for February 4, 2020

Temp ( °F °C ) Dew Point ( °F °C ) Humidity (%) Winds ( mph kmh ) Pressure ( in mb ) Visibility ( mi km ) Precip ( " mm )
12:54 am 00:54 undefined 50 10 39 3.9 66 66 undefined N/A 29.79 1009 N/A 0 0
1:54 am 01:54 undefined 49 9.4 40 4.4 71 71 undefined N/A 29.8 1009 N/A 0 0
2:54 am 02:54 undefined 50 10 40 4.4 68 68 undefined N/A 29.8 1009 N/A 0 0
3:54 am 03:54 undefined 50 10 40 4.4 68 68 undefined N/A 29.8 1009 N/A 0 0
4:54 am 04:54 undefined 51 10.6 41 5 69 69 undefined N/A 29.8 1009 N/A 0 0
5:54 am 05:54 undefined 50 10 43 6.1 77 77 undefined N/A 29.82 1010 N/A 0.01 0.254
6:54 am 06:54 undefined 50 10 44 6.7 80 80 undefined N/A 29.84 1011 N/A 0.01 0.254
7:54 am 07:54 undefined 50 10 46 7.8 86 86 undefined N/A 29.87 1012 N/A 0.03 0.762
8:54 am 08:54 undefined 50 10 46 7.8 86 86 undefined N/A 29.88 1012 N/A 0.02 0.508
9:54 am 09:54 undefined 51 10.6 47 8.3 86 86 undefined N/A 29.88 1012 N/A 0 0
10:54 am 10:54 undefined 55 12.8 49 9.4 80 80 undefined N/A 29.87 1011 N/A 0 0
11:54 am 11:54 undefined 58 14.4 49 9.4 72 72 undefined N/A 29.84 1010 N/A 0 0
12:54 pm 12:54 undefined 60 15.6 51 10.6 72 72 undefined N/A 29.81 1010 N/A 0 0
1:54 pm 13:54 undefined 59 15 50 10 72 72 undefined N/A 29.81 1009 N/A 0 0
2:54 pm 14:54 undefined 61 16.1 51 10.6 70 70 undefined N/A 29.79 1009 N/A 0 0
3:54 pm 15:54 undefined 59 15 50 10 72 72 undefined N/A 29.78 1008 N/A 0 0
4:54 pm 16:54 undefined 60 15.6 49 9.4 67 67 undefined N/A 29.8 1009 N/A 0 0
5:54 pm 17:54 undefined 58 14.4 49 9.4 72 72 undefined N/A 29.8 1009 N/A 0 0
6:54 pm 18:54 undefined 59 15 48 8.9 67 67 undefined N/A 29.8 1009 N/A 0 0
7:54 pm 19:54 undefined 58 14.4 48 8.9 70 70 undefined N/A 29.8 1009 N/A 0 0
8:54 pm 20:54 undefined 58 14.4 48 8.9 70 70 undefined N/A 29.79 1009 N/A 0 0
9:54 pm 21:54 undefined 56 13.3 49 9.4 77 77 undefined N/A 29.79 1009 N/A 0.01 0.254
10:54 pm 22:54 undefined 56 13.3 50 10 81 81 undefined N/A 29.78 1009 N/A 0 0
11:54 pm 23:54 undefined 55 12.8 49 9.4 80 80 undefined N/A 29.78 1008 N/A 0 0

Powered by AerisWeather